Koksijde, Belgium

12:25 AM CEST on September 20, 2014 (GMT +0200)
BERGUES | Change Station
CLOSE
Current Station
Personal Weather Station
Location: Bergues, NORD-PAS-DE-CALAIS
Elevation: 59 ft
Nearby Weather Stations

Elev 59 ft 50.97 °N, 2.44 °E | Updated 4 minutes ago

Clear
Clear
60.7 °F
Feels Like 60.7 °F
N
0.0
Wind Variable Wind from ENE
Gusts 0.0 mph

Today
High -- | Low -- °F
--% Chance of Precip.
Yesterday
High -- | Low -- °F
Precip. -- in
7:32 AM 7:52 PM
Waning Crescent, 16% visible
Pressure 29.92 in
Visibility -9999.0 miles
Clouds
Dew Point 59 °F
Humidity 94%
Rainfall 0.00 in
Snow Depth Not available.
UV 0.0 out of 12
Pollen Not available.
Air Quality Not available.
Flu Activity Not available.
METAR LFQQ 192200Z 00000KT CAVOK 17/16 Q1013 NOSIG

More Conditions Fewer Conditions

Pressure 29.92 in
Visibility -9999.0 miles
Clouds
Dew Point 59 °F
Humidity 94%
Rainfall 0.00 in
Snow Depth Not available.
UV 0.0 out of 12
Pollen Not available.
Air Quality Not available.
Flu Activity Not available.
METAR LFQQ 192200Z 00000KT CAVOK 17/16 Q1013 NOSIG

More Conditions Fewer Conditions

10-Day Weather Forecast

Almanac

Astronomy

Sep. 20, 2014 Rise Set
Actual Time 7:32 AM CEST 7:52 PM CEST
Civil Twilight 6:58 AM CEST 8:25 PM CEST
Nautical Twilight 6:19 AM CEST 9:04 PM CEST
Astronomical Twilight 5:38 AM CEST 9:45 PM CEST
Moon 3:38 AM CEST (9/20) 6:03 PM CEST (9/20)
Length of Visible Light 13h 26m
Length of Day
12h 20m
Tomorrow will be 3m 51s shorter.
Waning Crescent, 16% of the Moon is Illuminated
Sep 19
Waning Crescent
Sep 24
New
Oct 1
First Quarter
Oct 8
Full
Oct 15
Last Quarter

Yesterday's Extremes

Country Highs Country Lows

Community

WunderPhotos

Upload Photos

1,754,721 photos uploaded!

WunderBlogs® & News

Nearby

Snow Depth

Not available.

Earthquake Activity

City Distance Mag. Time & Date
No recent earthquake activity has been reported nearby.
Minimum magnitude displayed is 2.5.

Coastal Water Temperatures

Place Temperature
No Stations Reporting

Nearby Weather Stations